createdAt,value
2018-11-05T00:01:33.601Z,10.1
2018-11-05T00:06:36.229Z,10.1
2018-11-05T00:11:38.503Z,10.1
2018-11-05T00:16:40.928Z,10.1
2018-11-05T00:21:43.374Z,10.1
2018-11-05T00:26:45.797Z,10.1
2018-11-05T00:31:48.244Z,10.2
2018-11-05T00:36:50.682Z,10.2
2018-11-05T00:41:53.123Z,10.1
2018-11-05T00:46:55.559Z,10.2
2018-11-05T00:51:58.010Z,10.1
2018-11-05T00:57:00.479Z,10.1
2018-11-05T01:02:02.903Z,10.1
2018-11-05T01:07:05.335Z,10.1
2018-11-05T01:12:07.799Z,10.1
2018-11-05T01:17:10.242Z,10.1
2018-11-05T01:22:12.670Z,10.1
2018-11-05T01:27:15.136Z,10.1
2018-11-05T01:32:17.540Z,10.1
2018-11-05T01:37:20.099Z,10
2018-11-05T01:42:22.418Z,10
2018-11-05T01:47:24.881Z,10
2018-11-05T01:52:27.318Z,10
2018-11-05T01:57:29.753Z,9.9
2018-11-05T02:02:32.181Z,9.9
2018-11-05T02:07:34.622Z,9.9
2018-11-05T02:12:37.069Z,9.9
2018-11-05T02:17:39.506Z,9.8
2018-11-05T02:22:41.937Z,9.8
2018-11-05T02:27:44.366Z,9.7
2018-11-05T02:32:46.887Z,9.7
2018-11-05T02:37:49.255Z,9.7
2018-11-05T02:42:51.968Z,9.7
2018-11-05T02:47:54.142Z,9.7
2018-11-05T02:52:56.597Z,9.7
2018-11-05T02:57:58.996Z,9.7
2018-11-05T03:03:01.526Z,9.6
2018-11-05T03:08:03.945Z,9.6
2018-11-05T03:13:06.324Z,9.6
2018-11-05T03:18:08.844Z,9.6
2018-11-05T03:23:11.256Z,9.5
2018-11-05T03:28:13.692Z,9.5
2018-11-05T03:33:16.088Z,9.5
2018-11-05T03:38:18.562Z,9.5
2018-11-05T03:43:20.977Z,9.5
2018-11-05T03:48:23.459Z,9.4
2018-11-05T03:53:25.889Z,9.5
2018-11-05T03:58:28.301Z,9.5
2018-11-05T04:03:30.858Z,9.5
2018-11-05T04:08:33.188Z,9.5
2018-11-05T04:13:35.614Z,9.5
2018-11-05T04:18:38.060Z,9.5
2018-11-05T04:23:40.511Z,9.5
2018-11-05T04:28:42.928Z,9.5
2018-11-05T04:33:45.370Z,9.4
2018-11-05T04:38:47.841Z,9.4
2018-11-05T04:48:52.692Z,9.3
2018-11-05T04:53:55.137Z,9.3
2018-11-05T04:58:57.579Z,9.3
2018-11-05T05:09:07.483Z,9.2
2018-11-05T05:14:04.968Z,9.1
2018-11-05T05:19:07.463Z,9
2018-11-05T05:24:09.871Z,9.1
2018-11-05T05:29:12.216Z,9.1
2018-11-05T05:34:14.726Z,9.2
2018-11-05T05:44:19.539Z,9.2
2018-11-05T05:49:22.073Z,9.2
2018-11-05T05:54:24.527Z,9.1
2018-11-05T05:59:26.884Z,9.1
2018-11-05T06:04:29.361Z,9
2018-11-05T06:09:31.736Z,9
2018-11-05T06:14:34.210Z,9
2018-11-05T06:19:36.617Z,9
2018-11-05T06:24:39.055Z,9
2018-11-05T06:29:41.509Z,9
2018-11-05T06:34:43.938Z,9.1
2018-11-05T06:39:46.388Z,9.2
2018-11-05T06:44:48.871Z,9.2
2018-11-05T06:49:51.253Z,9.2
2018-11-05T06:54:53.696Z,9.2
2018-11-05T06:59:56.148Z,9.3
2018-11-05T07:04:58.726Z,9.3
2018-11-05T07:10:01.199Z,9.3
2018-11-05T07:15:03.464Z,9.4
2018-11-05T07:20:06.000Z,9.5
2018-11-05T07:25:08.390Z,9.6
2018-11-05T07:30:10.790Z,9.7
2018-11-05T07:35:13.218Z,9.8
2018-11-05T07:40:15.664Z,9.9
2018-11-05T07:45:18.140Z,10
2018-11-05T07:50:20.673Z,10.1
2018-11-05T07:55:23.018Z,10.3
2018-11-05T08:00:25.441Z,10.4
2018-11-05T08:05:27.878Z,10.6
2018-11-05T08:10:30.294Z,10.7
2018-11-05T08:15:32.771Z,10.8
2018-11-05T08:20:35.235Z,10.9
2018-11-05T08:25:37.630Z,10.9
2018-11-05T08:30:40.074Z,11
2018-11-05T08:35:42.601Z,11.1
2018-11-05T08:40:44.994Z,11.2
2018-11-05T08:45:47.391Z,11.2
2018-11-05T08:50:49.991Z,11.2
2018-11-05T08:55:52.270Z,11.2
2018-11-05T09:00:54.748Z,11.3
2018-11-05T09:05:57.178Z,11.4
2018-11-05T09:10:59.943Z,11.5
2018-11-05T09:16:02.188Z,11.6
2018-11-05T09:21:04.472Z,11.6
2018-11-05T09:26:06.979Z,11.6
2018-11-05T09:31:09.342Z,11.5
2018-11-05T09:36:11.794Z,11.6
2018-11-05T09:41:14.246Z,11.7
2018-11-05T09:46:16.671Z,11.8
2018-11-05T09:51:19.110Z,11.9
2018-11-05T09:56:21.586Z,11.9
2018-11-05T10:01:24.002Z,11.9
2018-11-05T10:06:26.429Z,12
2018-11-05T10:11:28.869Z,12.4
2018-11-05T10:16:31.309Z,12.8
2018-11-05T10:21:33.759Z,13.2
2018-11-05T10:26:36.198Z,13.4
2018-11-05T10:31:38.650Z,13.6
2018-11-05T10:36:41.069Z,13.8
2018-11-05T10:41:43.558Z,13.9
2018-11-05T10:46:45.965Z,14.1
2018-11-05T10:51:48.459Z,14.3
2018-11-05T10:56:50.899Z,14.4
2018-11-05T11:01:53.273Z,14.9
2018-11-05T11:06:55.723Z,15.5
2018-11-05T11:11:58.163Z,16
2018-11-05T11:17:00.609Z,16.6
2018-11-05T11:22:03.157Z,17.1
2018-11-05T11:27:05.480Z,17.2
2018-11-05T11:32:07.919Z,17.1
2018-11-05T11:37:10.436Z,16.9
2018-11-05T11:42:12.912Z,16.5
2018-11-05T11:47:15.352Z,16.1
2018-11-05T11:52:17.716Z,15.7
2018-11-05T11:57:20.128Z,15.9
2018-11-05T12:02:22.574Z,16.1
2018-11-05T12:07:24.998Z,16.2
2018-11-05T12:12:27.443Z,16.1
2018-11-05T12:17:29.903Z,16
2018-11-05T12:22:32.332Z,15.8
2018-11-05T12:27:34.759Z,15.2
2018-11-05T12:32:37.203Z,14.8
2018-11-05T12:37:39.645Z,14.7
2018-11-05T12:42:42.094Z,14.5
2018-11-05T12:47:44.568Z,14.4
2018-11-05T12:52:46.977Z,14.6
2018-11-05T12:57:49.395Z,14.9
2018-11-05T13:02:51.849Z,15
2018-11-05T13:07:54.289Z,14.9
2018-11-05T13:12:56.766Z,14.6
2018-11-05T13:17:59.182Z,14.3
2018-11-05T13:23:01.636Z,13.9
2018-11-05T13:28:04.098Z,13.7
2018-11-05T13:33:06.514Z,13.5
2018-11-05T13:43:11.383Z,13.2
2018-11-05T13:48:14.217Z,13.2
2018-11-05T13:53:16.248Z,13.1
2018-11-05T13:58:18.737Z,13.1
2018-11-05T14:03:21.131Z,13.1
2018-11-05T14:08:23.579Z,13.1
2018-11-05T14:13:26.165Z,13
2018-11-05T14:18:28.511Z,13
2018-11-05T14:23:30.897Z,12.9
2018-11-05T14:28:33.837Z,12.8
2018-11-05T14:33:35.764Z,12.7
2018-11-05T14:38:38.274Z,12.6
2018-11-05T14:43:40.788Z,12.5
2018-11-05T14:48:43.144Z,12.4
2018-11-05T14:53:45.536Z,12.2
2018-11-05T14:58:47.986Z,12.1
2018-11-05T15:03:50.413Z,12
2018-11-05T15:08:52.859Z,11.9
2018-11-05T15:13:55.302Z,11.9
2018-11-05T15:18:58.060Z,11.8
2018-11-05T15:24:00.172Z,11.8
2018-11-05T15:29:02.635Z,11.7
2018-11-05T15:34:05.090Z,11.6
2018-11-05T15:39:07.524Z,11.5
2018-11-05T15:44:09.969Z,11.4
2018-11-05T15:49:12.382Z,11.3
2018-11-05T15:54:14.966Z,11.2
2018-11-05T15:59:17.277Z,11.1
2018-11-05T16:04:19.744Z,11
2018-11-05T16:09:22.347Z,10.9
2018-11-05T16:14:24.601Z,10.9
2018-11-05T16:19:27.012Z,10.8
2018-11-05T16:24:29.576Z,10.8
2018-11-05T16:29:31.914Z,10.8
2018-11-05T16:34:34.404Z,10.8
2018-11-05T16:39:36.929Z,10.8
2018-11-05T16:44:39.247Z,10.7
2018-11-05T16:49:41.666Z,10.7
2018-11-05T16:54:44.171Z,10.7
2018-11-05T16:59:46.555Z,10.7
2018-11-05T17:04:48.987Z,10.7
2018-11-05T17:09:51.416Z,10.8
2018-11-05T17:14:53.869Z,10.8
2018-11-05T17:19:56.296Z,10.8
2018-11-05T17:24:58.739Z,10.8
2018-11-05T17:30:01.222Z,10.8
2018-11-05T17:35:03.624Z,10.8
2018-11-05T17:40:06.111Z,10.8
2018-11-05T17:45:08.527Z,10.7
2018-11-05T17:50:10.951Z,10.8
2018-11-05T17:55:13.396Z,10.7
2018-11-05T18:00:15.871Z,10.7
2018-11-05T18:05:18.258Z,10.7
2018-11-05T18:10:20.696Z,10.6
2018-11-05T18:15:23.173Z,10.6
2018-11-05T18:20:25.610Z,10.6
2018-11-05T18:25:28.021Z,10.6
2018-11-05T18:30:30.458Z,10.6
2018-11-05T18:35:32.928Z,10.6
2018-11-05T18:40:35.340Z,10.6
2018-11-05T18:45:37.973Z,10.6
2018-11-05T18:50:40.240Z,10.6
2018-11-05T18:55:42.662Z,10.6
2018-11-05T19:00:45.106Z,10.6
2018-11-05T19:05:47.543Z,10.6
2018-11-05T19:10:49.982Z,10.6
2018-11-05T19:15:52.441Z,10.6
2018-11-05T19:20:54.870Z,10.6
2018-11-05T19:25:57.301Z,10.6
2018-11-05T19:30:59.750Z,10.6
2018-11-05T19:36:02.278Z,10.6
2018-11-05T19:41:04.629Z,10.6
2018-11-05T19:46:07.079Z,10.6
2018-11-05T19:51:09.507Z,10.5
2018-11-05T19:56:12.086Z,10.5
2018-11-05T20:01:14.414Z,10.5
2018-11-05T20:06:16.981Z,10.5
2018-11-05T20:11:19.298Z,10.6
2018-11-05T20:16:21.721Z,10.6
2018-11-05T20:21:24.144Z,10.7
2018-11-05T20:26:26.587Z,10.7
2018-11-05T20:31:29.278Z,10.7
2018-11-05T20:36:31.470Z,10.7
2018-11-05T20:41:33.909Z,10.7
2018-11-05T20:46:36.385Z,10.6
2018-11-05T20:51:38.778Z,10.6
2018-11-05T20:56:41.259Z,10.6
2018-11-05T21:01:43.676Z,10.6
2018-11-05T21:06:46.159Z,10.6
2018-11-05T21:11:48.551Z,10.6
2018-11-05T21:16:51.053Z,10.5
2018-11-05T21:21:53.723Z,10.6
2018-11-05T21:26:56.010Z,10.5
2018-11-05T21:31:58.309Z,10.5
2018-11-05T21:37:00.748Z,10.5
2018-11-05T21:42:03.187Z,10.4
2018-11-05T21:47:05.852Z,10.4
2018-11-05T21:52:08.060Z,10.3
2018-11-05T21:57:10.515Z,10.3
2018-11-05T22:02:13.019Z,10.3
2018-11-05T22:07:15.444Z,10.2
2018-11-05T22:12:17.836Z,10.2
2018-11-05T22:17:20.289Z,10.2
2018-11-05T22:22:22.729Z,10.2
2018-11-05T22:27:25.266Z,10.1
2018-11-05T22:32:27.588Z,10.1
2018-11-05T22:37:30.043Z,0
2018-11-05T22:42:32.468Z,10
2018-11-05T22:47:34.904Z,10
2018-11-05T22:52:37.333Z,10
2018-11-05T22:57:39.794Z,10
2018-11-05T23:02:42.233Z,10
2018-11-05T23:07:44.671Z,10
2018-11-05T23:12:47.120Z,9.9
2018-11-05T23:17:49.584Z,9.9
2018-11-05T23:22:51.992Z,9.9
2018-11-05T23:27:54.427Z,9.9
2018-11-05T23:32:56.875Z,9.8
2018-11-05T23:37:59.336Z,9.8
2018-11-05T23:43:01.765Z,9.8
2018-11-05T23:48:04.203Z,9.8
2018-11-05T23:53:06.624Z,9.7
2018-11-05T23:58:09.076Z,9.8
